createdAt,value
2023-03-29T00:00:31.021Z,97484.95
2023-03-29T00:03:01.541Z,97481.52
2023-03-29T00:05:31.230Z,97483.06
2023-03-29T00:08:01.286Z,97484.65
2023-03-29T00:10:30.820Z,97480.69
2023-03-29T00:12:58.699Z,97485.16
2023-03-29T00:15:26.916Z,97484.82
2023-03-29T00:17:54.696Z,97489.34
2023-03-29T00:20:22.659Z,97490.92
2023-03-29T00:22:50.448Z,97490.09
2023-03-29T00:25:18.230Z,97490.62
2023-03-29T00:27:46.537Z,97489.56
2023-03-29T00:30:14.953Z,97497.22
2023-03-29T00:32:43.645Z,97499.63
2023-03-29T00:35:11.882Z,97494.89
2023-03-29T00:37:40.790Z,97497.57
2023-03-29T00:40:14.899Z,97497.61
2023-03-29T00:42:45.735Z,97496.34
2023-03-29T00:45:28.540Z,97495.07
2023-03-29T00:48:04.486Z,97496.43
2023-03-29T00:50:49.513Z,97497.27
2023-03-29T00:53:36.840Z,97496.22
2023-03-29T00:56:23.836Z,97498.37
2023-03-29T00:59:05.735Z,97502.91
2023-03-29T01:01:53.970Z,97500.34
2023-03-29T01:04:36.459Z,97497.19
2023-03-29T01:07:22.203Z,97495.64
2023-03-29T01:10:15.944Z,97497.49
2023-03-29T01:12:48.282Z,97502.02
2023-03-29T01:15:20.690Z,97502.59
2023-03-29T01:17:53.103Z,97500.44
2023-03-29T01:20:42.998Z,97500.35
2023-03-29T01:23:43.602Z,97501.93
2023-03-29T01:26:51.069Z,97511.38
2023-03-29T01:29:30.175Z,97506.33
2023-03-29T01:32:06.378Z,97503.48
2023-03-29T01:34:42.280Z,97505.62
2023-03-29T01:37:23.446Z,97504.27
2023-03-29T01:39:52.693Z,97500.83
2023-03-29T01:42:44.144Z,97497.97
2023-03-29T01:45:23.466Z,97504.56
2023-03-29T01:48:18.173Z,97499.25
2023-03-29T01:50:55.640Z,97499.83
2023-03-29T01:53:31.099Z,97497.27
2023-03-29T01:56:03.917Z,97499.13
2023-03-29T01:58:36.343Z,97493.34
2023-03-29T02:01:09.849Z,97493.61
2023-03-29T02:03:42.158Z,97493.04
2023-03-29T02:06:20.242Z,97492.17
2023-03-29T02:08:49.316Z,97493.44
2023-03-29T02:11:18.168Z,97491.59
2023-03-29T02:13:46.083Z,97488.91
2023-03-29T02:16:15.519Z,97486.72
2023-03-29T02:18:46.451Z,97489.09
2023-03-29T02:21:22.568Z,97492.25
2023-03-29T02:23:54.053Z,97489.34
2023-03-29T02:26:23.381Z,97490.45
2023-03-29T02:28:52.288Z,97494.95
2023-03-29T02:31:34.594Z,97485.70
2023-03-29T02:34:19.524Z,97496.00
2023-03-29T02:36:56.097Z,97486.23
2023-03-29T02:39:27.518Z,97493.13
2023-03-29T02:41:56.252Z,97489.97
2023-03-29T02:44:31.110Z,97494.72
2023-03-29T02:47:10.773Z,97489.19
2023-03-29T02:49:39.031Z,97491.03
2023-03-29T02:52:16.433Z,97486.77
2023-03-29T02:54:47.510Z,97482.23
2023-03-29T02:57:15.518Z,97484.56
2023-03-29T02:59:44.392Z,97488.43
2023-03-29T03:02:13.306Z,97498.15
2023-03-29T03:04:41.174Z,97500.15
2023-03-29T03:07:09.212Z,97506.82
2023-03-29T03:09:37.215Z,97511.52
2023-03-29T03:12:05.872Z,97506.45
2023-03-29T03:14:33.603Z,97511.14
2023-03-29T03:17:04.395Z,97514.74
2023-03-29T03:19:31.464Z,97511.79
2023-03-29T03:21:59.211Z,97509.66
2023-03-29T03:24:27.745Z,97510.56
2023-03-29T03:26:57.108Z,97512.56
2023-03-29T03:29:28.485Z,97512.50
2023-03-29T03:31:58.944Z,97508.77
2023-03-29T03:34:44.980Z,97510.80
2023-03-29T03:37:12.681Z,97513.12
2023-03-29T03:39:41.149Z,97517.02
2023-03-29T03:42:10.240Z,97514.86
2023-03-29T03:44:40.059Z,97520.12
2023-03-29T03:47:18.376Z,97518.73
2023-03-29T03:49:47.698Z,97515.53
2023-03-29T03:52:15.820Z,97522.31
2023-03-29T03:54:45.298Z,97524.63
2023-03-29T03:57:31.808Z,97528.30
2023-03-29T03:59:59.888Z,97533.84
2023-03-29T04:02:30.314Z,97539.05
2023-03-29T04:05:00.518Z,97544.30
2023-03-29T04:07:30.218Z,97541.66
2023-03-29T04:10:03.765Z,97550.06
2023-03-29T04:12:31.882Z,97548.52
2023-03-29T04:14:59.704Z,97552.00
2023-03-29T04:17:28.094Z,97553.08
2023-03-29T04:20:01.845Z,97562.81
2023-03-29T04:22:31.602Z,97560.42
2023-03-29T04:24:59.267Z,97566.48
2023-03-29T04:27:32.586Z,97573.76
2023-03-29T04:30:02.465Z,97571.32
2023-03-29T04:32:31.965Z,97579.47
2023-03-29T04:35:05.574Z,97577.05
2023-03-29T04:37:33.930Z,97586.05
2023-03-29T04:40:03.912Z,97586.59
2023-03-29T04:42:33.974Z,97592.20
2023-03-29T04:45:01.984Z,97590.66
2023-03-29T04:47:32.227Z,97595.73
2023-03-29T04:50:05.941Z,97602.90
2023-03-29T04:52:41.884Z,97601.14
2023-03-29T04:55:12.333Z,97606.47
2023-03-29T04:57:44.759Z,97609.95
2023-03-29T05:00:22.903Z,97611.34
2023-03-29T05:02:53.439Z,97616.42
2023-03-29T05:05:23.808Z,97619.69
2023-03-29T05:07:52.473Z,97628.75
2023-03-29T05:10:22.982Z,97632.06
2023-03-29T05:12:52.666Z,97631.70
2023-03-29T05:15:21.943Z,97633.36
2023-03-29T05:17:50.239Z,97636.84
2023-03-29T05:20:18.223Z,97639.16
2023-03-29T05:22:48.378Z,97642.27
2023-03-29T05:25:19.174Z,97640.63
2023-03-29T05:27:47.296Z,97645.39
2023-03-29T05:30:15.680Z,97646.16
2023-03-29T05:32:52.355Z,97652.66
2023-03-29T05:35:23.784Z,97651.52
2023-03-29T05:37:51.525Z,97651.78
2023-03-29T05:40:19.491Z,97654.64
2023-03-29T05:42:49.235Z,97648.88
2023-03-29T05:45:17.262Z,97655.22
2023-03-29T05:47:45.891Z,97662.61
2023-03-29T05:50:13.687Z,97663.70
2023-03-29T05:52:42.658Z,97663.50
2023-03-29T05:55:10.594Z,97666.02
2023-03-29T05:57:38.773Z,97666.66
2023-03-29T06:00:15.547Z,97667.55
2023-03-29T06:02:43.446Z,97674.98
2023-03-29T06:05:11.426Z,97681.53
2023-03-29T06:07:41.891Z,97688.91
2023-03-29T06:10:13.062Z,97700.27
2023-03-29T06:12:42.426Z,97696.14
2023-03-29T06:15:10.875Z,97695.94
2023-03-29T06:17:47.528Z,97708.18
2023-03-29T06:20:16.609Z,97704.72
2023-03-29T06:22:47.466Z,97699.17
2023-03-29T06:25:17.139Z,97707.88
2023-03-29T06:27:49.166Z,97709.15
2023-03-29T06:30:18.664Z,97711.72
2023-03-29T06:32:49.916Z,97709.55
2023-03-29T06:35:25.570Z,97717.40
2023-03-29T06:37:55.521Z,97717.00
2023-03-29T06:40:30.452Z,97720.19
2023-03-29T06:42:58.934Z,97713.53
2023-03-29T06:45:46.767Z,97716.81
2023-03-29T06:48:21.245Z,97726.36
2023-03-29T06:50:49.331Z,97724.34
2023-03-29T06:53:18.549Z,97727.09
2023-03-29T06:55:50.307Z,97725.48
2023-03-29T06:58:25.893Z,97733.12
2023-03-29T07:01:04.332Z,97733.95
2023-03-29T07:03:35.671Z,97733.95
2023-03-29T07:06:06.883Z,97736.80
2023-03-29T07:08:41.657Z,97738.80
2023-03-29T07:11:13.684Z,97741.92
2023-03-29T07:13:43.642Z,97738.98
2023-03-29T07:16:13.609Z,97747.89
2023-03-29T07:18:56.233Z,97748.88
2023-03-29T07:21:42.544Z,97755.33
2023-03-29T07:24:10.750Z,97762.42
2023-03-29T07:26:40.487Z,97756.80
2023-03-29T07:29:08.872Z,97754.50
2023-03-29T07:31:39.484Z,97756.36
2023-03-29T07:34:11.674Z,97755.34
2023-03-29T07:36:39.751Z,97754.12
2023-03-29T07:39:12.546Z,97767.91
2023-03-29T07:41:40.840Z,97767.61
2023-03-29T07:44:13.395Z,97766.61
2023-03-29T07:46:42.845Z,97760.98
2023-03-29T07:49:10.720Z,97766.48
2023-03-29T07:51:38.321Z,97760.42
2023-03-29T07:54:07.732Z,97773.16
2023-03-29T07:56:40.862Z,97770.22
2023-03-29T07:59:23.652Z,97772.11
2023-03-29T08:01:56.144Z,97779.72
2023-03-29T08:04:26.109Z,97775.91
2023-03-29T08:07:13.271Z,97774.52
2023-03-29T08:09:43.039Z,97780.80
2023-03-29T08:12:11.033Z,97789.27
2023-03-29T08:14:38.904Z,97783.45
2023-03-29T08:17:15.487Z,97786.36
2023-03-29T08:19:51.043Z,97784.58
2023-03-29T08:22:15.930Z,97787.52
2023-03-29T08:25:02.320Z,97794.44
2023-03-29T08:27:31.966Z,97792.55
2023-03-29T08:30:00.178Z,97788.31
2023-03-29T08:32:28.138Z,97796.22
2023-03-29T08:34:55.813Z,97802.88
2023-03-29T08:37:25.416Z,97801.78
2023-03-29T08:39:54.492Z,97795.16
2023-03-29T08:42:51.565Z,97795.04
2023-03-29T08:45:31.458Z,97795.94
2023-03-29T08:48:26.808Z,97801.00
2023-03-29T08:51:03.456Z,97803.12
2023-03-29T08:53:41.354Z,97808.19
2023-03-29T08:56:18.239Z,97800.06
2023-03-29T08:59:00.342Z,97804.16
2023-03-29T09:01:34.309Z,97802.55
2023-03-29T09:04:10.806Z,97814.73
2023-03-29T09:06:40.615Z,97808.27
2023-03-29T09:09:21.347Z,97812.48
2023-03-29T09:12:18.994Z,97807.84
2023-03-29T09:15:19.184Z,97805.56
2023-03-29T09:18:23.018Z,97798.55
2023-03-29T09:21:01.663Z,97817.87
2023-03-29T09:23:55.716Z,97817.05
2023-03-29T09:26:47.194Z,97814.78
2023-03-29T09:29:54.742Z,97816.66
2023-03-29T09:32:41.789Z,97808.47
2023-03-29T09:35:17.938Z,97820.31
2023-03-29T09:37:51.057Z,97822.23
2023-03-29T09:40:24.238Z,97817.64
2023-03-29T09:42:55.780Z,97814.56
2023-03-29T09:45:23.556Z,97819.13
2023-03-29T09:48:02.488Z,97828.72
2023-03-29T09:50:46.278Z,97829.50
2023-03-29T09:53:15.862Z,97830.04
2023-03-29T09:55:50.316Z,97818.33
2023-03-29T09:58:32.503Z,97818.33
2023-03-29T10:01:05.056Z,97822.05
2023-03-29T10:03:34.488Z,97828.18
2023-03-29T10:06:09.744Z,97824.19
2023-03-29T10:08:52.196Z,97822.59
2023-03-29T10:11:37.543Z,97824.72
2023-03-29T10:14:16.458Z,97827.11
2023-03-29T10:16:45.740Z,97828.92
2023-03-29T10:19:34.226Z,97833.69
2023-03-29T10:22:07.650Z,97837.41
2023-03-29T10:24:35.641Z,97827.59
2023-03-29T10:27:07.308Z,97834.50
2023-03-29T10:29:40.017Z,97838.75
2023-03-29T10:32:33.173Z,97838.19
2023-03-29T10:35:21.493Z,97841.38
2023-03-29T10:37:52.645Z,97836.02
2023-03-29T10:40:28.850Z,97837.84
2023-03-29T10:43:23.986Z,97846.90
2023-03-29T10:45:56.781Z,97832.13
2023-03-29T10:48:30.615Z,97828.95
2023-03-29T10:51:01.372Z,97828.44
2023-03-29T10:53:36.064Z,97831.38
2023-03-29T10:56:20.724Z,97830.56
2023-03-29T10:59:22.382Z,97827.34
2023-03-29T11:02:12.424Z,97822.83
2023-03-29T11:05:11.252Z,97827.09
2023-03-29T11:07:50.269Z,97815.39
2023-03-29T11:10:54.732Z,97819.66
2023-03-29T11:13:58.675Z,97817.78
2023-03-29T11:17:00.389Z,97810.57
2023-03-29T11:19:54.980Z,97813.77
2023-03-29T11:22:52.785Z,97808.70
2023-03-29T11:25:28.429Z,97807.63
2023-03-29T11:28:07.006Z,97800.98
2023-03-29T11:30:42.414Z,97802.61
2023-03-29T11:33:42.644Z,97796.98
2023-03-29T11:36:49.973Z,97796.36
2023-03-29T11:39:38.982Z,97782.29
2023-03-29T11:42:23.417Z,97793.16
2023-03-29T11:44:55.098Z,97787.33
2023-03-29T11:47:27.469Z,97791.61
2023-03-29T11:50:05.999Z,97788.44
2023-03-29T11:52:44.128Z,97787.11
2023-03-29T11:55:16.817Z,97795.06
2023-03-29T11:57:56.208Z,97781.42
2023-03-29T12:00:38.093Z,97786.38
2023-03-29T12:03:39.503Z,97773.78
2023-03-29T12:06:37.218Z,97790.03
2023-03-29T12:09:29.054Z,97778.88
2023-03-29T12:12:17.246Z,97783.13
2023-03-29T12:15:10.356Z,97773.30
2023-03-29T12:17:44.952Z,97769.86
2023-03-29T12:20:27.589Z,97778.62
2023-03-29T12:22:57.537Z,97779.31
2023-03-29T12:25:33.340Z,97770.10
2023-03-29T12:28:32.822Z,97787.58
2023-03-29T12:31:17.592Z,97772.45
2023-03-29T12:34:33.868Z,97786.94
2023-03-29T12:37:51.781Z,97778.33
2023-03-29T12:40:45.210Z,97787.37
2023-03-29T12:43:40.735Z,97788.28
2023-03-29T12:46:25.777Z,97792.02
2023-03-29T12:49:02.534Z,97793.13
2023-03-29T12:51:33.617Z,97792.38
2023-03-29T12:54:18.616Z,97787.45
2023-03-29T12:57:03.980Z,97791.91
2023-03-29T12:59:47.261Z,97785.44
2023-03-29T13:02:21.149Z,97800.25
2023-03-29T13:05:00.820Z,97789.42
2023-03-29T13:07:34.093Z,97785.23
2023-03-29T13:10:08.726Z,97791.51
2023-03-29T13:12:41.756Z,97793.21
2023-03-29T13:15:21.494Z,97796.82
2023-03-29T13:18:32.508Z,97790.92
2023-03-29T13:21:47.871Z,97784.91
2023-03-29T13:24:48.476Z,97791.94
2023-03-29T13:28:02.310Z,97793.08
2023-03-29T13:30:48.901Z,97791.44
2023-03-29T13:33:33.254Z,97795.52
2023-03-29T13:36:36.670Z,97792.53
2023-03-29T13:39:09.554Z,97793.70
2023-03-29T13:41:46.249Z,97796.98
2023-03-29T13:44:45.351Z,97787.59
2023-03-29T13:47:37.581Z,97789.56
2023-03-29T13:50:20.159Z,97793.39
2023-03-29T13:53:29.510Z,97795.36
2023-03-29T13:55:58.200Z,97782.91
2023-03-29T13:58:46.141Z,97788.40
2023-03-29T14:01:36.377Z,97785.64
2023-03-29T14:04:07.980Z,97790.19
2023-03-29T14:06:39.051Z,97785.78
2023-03-29T14:09:15.577Z,97791.63
2023-03-29T14:11:58.688Z,97783.98
2023-03-29T14:14:33.451Z,97786.73
2023-03-29T14:17:07.996Z,97781.40
2023-03-29T14:19:39.699Z,97787.52
2023-03-29T14:22:15.550Z,97793.53
2023-03-29T14:24:49.560Z,97793.61
2023-03-29T14:27:18.764Z,97788.89
2023-03-29T14:29:49.001Z,97791.36
2023-03-29T14:32:30.414Z,97785.83
2023-03-29T14:35:00.261Z,97799.19
2023-03-29T14:37:28.789Z,97797.94
2023-03-29T14:39:58.923Z,97801.65
2023-03-29T14:42:29.060Z,97792.58
2023-03-29T14:45:08.641Z,97789.45
2023-03-29T14:47:38.224Z,97787.30
2023-03-29T14:50:10.241Z,97797.91
2023-03-29T14:52:38.460Z,97789.13
2023-03-29T14:55:09.479Z,97790.95
2023-03-29T14:57:37.732Z,97791.25
2023-03-29T15:00:26.328Z,97786.46
2023-03-29T15:03:02.452Z,97789.13
2023-03-29T15:05:43.408Z,97795.23
2023-03-29T15:08:19.333Z,97789.34
2023-03-29T15:10:46.988Z,97773.66
2023-03-29T15:13:23.150Z,97795.70
2023-03-29T15:15:58.519Z,97797.03
2023-03-29T15:18:41.550Z,97793.62
2023-03-29T15:21:12.954Z,97796.03
2023-03-29T15:23:54.969Z,97791.57
2023-03-29T15:26:36.182Z,97797.16
2023-03-29T15:29:16.509Z,97791.03
2023-03-29T15:31:49.684Z,97797.69
2023-03-29T15:34:26.626Z,97807.01
2023-03-29T15:36:56.684Z,97805.96
2023-03-29T15:39:30.405Z,97811.28
2023-03-29T15:42:07.854Z,97812.36
2023-03-29T15:44:38.477Z,97810.27
2023-03-29T15:47:13.243Z,97810.27
2023-03-29T15:49:41.346Z,97807.89
2023-03-29T15:52:09.055Z,97812.95
2023-03-29T15:54:36.936Z,97817.23
2023-03-29T15:57:16.738Z,97814.05
2023-03-29T15:59:44.869Z,97815.91
2023-03-29T16:02:16.918Z,97810.08
2023-03-29T16:04:44.964Z,97818.05
2023-03-29T16:07:22.805Z,97813.80
2023-03-29T16:10:18.709Z,97821.77
2023-03-29T16:15:44.045Z,97818.06
2023-03-29T16:18:12.592Z,97829.52
2023-03-29T16:20:41.164Z,97822.31
2023-03-29T16:23:09.330Z,97830.83
2023-03-29T16:25:39.847Z,97828.44
2023-03-29T16:28:09.587Z,97825.23
2023-03-29T16:30:38.350Z,97829.74
2023-03-29T16:33:07.822Z,97835.31
2023-03-29T16:35:39.568Z,97835.02
2023-03-29T16:38:08.892Z,97839.25
2023-03-29T16:40:38.684Z,97838.72
2023-03-29T16:43:06.932Z,97839.52
2023-03-29T16:45:34.565Z,97834.70
2023-03-29T16:48:04.793Z,97834.70
2023-03-29T16:50:32.579Z,97843.70
2023-03-29T16:53:00.261Z,97844.22
2023-03-29T16:55:28.102Z,97845.78
2023-03-29T16:57:55.782Z,97854.00
2023-03-29T17:00:23.760Z,97856.34
2023-03-29T17:02:51.914Z,97856.32
2023-03-29T17:05:19.907Z,97857.61
2023-03-29T17:07:47.969Z,97859.98
2023-03-29T17:10:15.827Z,97864.45
2023-03-29T17:12:43.610Z,97872.89
2023-03-29T17:15:11.678Z,97873.94
2023-03-29T17:17:39.508Z,97872.83
2023-03-29T17:20:11.416Z,97877.05
2023-03-29T17:22:40.129Z,97875.43
2023-03-29T17:25:09.282Z,97884.19
2023-03-29T17:27:37.466Z,97892.64
2023-03-29T17:30:06.927Z,97893.41
2023-03-29T17:32:35.297Z,97891.03
2023-03-29T17:35:04.440Z,97900.55
2023-03-29T17:37:34.398Z,97901.05
2023-03-29T17:40:10.708Z,97907.41
2023-03-29T17:42:38.600Z,97914.55
2023-03-29T17:45:07.953Z,97918.23
2023-03-29T17:47:36.748Z,97925.65
2023-03-29T17:50:06.654Z,97924.56
2023-03-29T17:52:34.721Z,97926.91
2023-03-29T17:55:02.954Z,97926.32
2023-03-29T17:57:30.761Z,97932.12
2023-03-29T17:59:58.431Z,97934.77
2023-03-29T18:02:26.390Z,97938.18
2023-03-29T18:04:56.676Z,97938.98
2023-03-29T18:07:24.437Z,97940.80
2023-03-29T18:09:51.992Z,97944.77
2023-03-29T18:12:19.648Z,97950.56
2023-03-29T18:14:47.391Z,97947.32
2023-03-29T18:17:24.214Z,97954.17
2023-03-29T18:19:52.966Z,97958.64
2023-03-29T18:22:24.834Z,97957.01
2023-03-29T18:24:54.472Z,97959.32
2023-03-29T18:27:22.340Z,97959.23
2023-03-29T18:29:50.828Z,97957.80
2023-03-29T18:32:18.949Z,97963.05
2023-03-29T18:34:48.170Z,97959.26
2023-03-29T18:37:19.699Z,97964.51
2023-03-29T18:39:48.572Z,97965.52
2023-03-29T18:42:17.729Z,97966.01
2023-03-29T18:44:47.617Z,97969.67
2023-03-29T18:47:17.433Z,97968.56
2023-03-29T18:49:45.338Z,97968.73
2023-03-29T18:52:13.722Z,97967.86
2023-03-29T18:54:42.889Z,97973.36
2023-03-29T18:57:11.082Z,97969.81
2023-03-29T18:59:41.267Z,97974.27
2023-03-29T19:02:10.519Z,97966.02
2023-03-29T19:04:39.582Z,97977.29
2023-03-29T19:07:08.337Z,97969.73
2023-03-29T19:09:36.091Z,97969.89
2023-03-29T19:12:04.153Z,97970.05
2023-03-29T19:14:33.905Z,97972.28
2023-03-29T19:17:04.033Z,97971.45
2023-03-29T19:19:31.981Z,97975.13
2023-03-29T19:22:00.725Z,97971.31
2023-03-29T19:24:28.584Z,97970.24
2023-03-29T19:26:56.911Z,97968.13
2023-03-29T19:29:25.697Z,97972.89
2023-03-29T19:31:54.241Z,97967.28
2023-03-29T19:34:24.103Z,97965.06
2023-03-29T19:36:53.660Z,97972.34
2023-03-29T19:39:22.200Z,97971.64
2023-03-29T19:41:50.343Z,97969.34
2023-03-29T19:44:19.551Z,97971.58
2023-03-29T19:46:48.993Z,97966.77
2023-03-29T19:49:17.317Z,97963.55
2023-03-29T19:51:45.044Z,97972.19
2023-03-29T19:54:13.462Z,97969.73
2023-03-29T19:56:42.334Z,97967.51
2023-03-29T19:59:11.744Z,97966.63
2023-03-29T20:01:41.539Z,97956.34
2023-03-29T20:04:09.663Z,97973.11
2023-03-29T20:06:37.297Z,97977.27
2023-03-29T20:09:07.027Z,97972.70
2023-03-29T20:11:34.990Z,97979.48
2023-03-29T20:14:03.798Z,97982.59
2023-03-29T20:16:33.588Z,97987.80
2023-03-29T20:19:02.102Z,97980.41
2023-03-29T20:21:29.843Z,97986.39
2023-03-29T20:23:57.605Z,97983.94
2023-03-29T20:26:25.454Z,97985.72
2023-03-29T20:28:53.144Z,97984.89
2023-03-29T20:31:37.045Z,97989.63
2023-03-29T20:34:04.920Z,97987.50
2023-03-29T20:36:32.840Z,97986.19
2023-03-29T20:39:01.567Z,97987.78
2023-03-29T20:41:30.851Z,97983.02
2023-03-29T20:43:59.130Z,97982.69
2023-03-29T20:46:36.546Z,97981.37
2023-03-29T20:49:08.313Z,97986.92
2023-03-29T20:51:39.266Z,97978.94
2023-03-29T20:54:07.128Z,97983.61
2023-03-29T20:56:39.340Z,97985.38
2023-03-29T20:59:09.832Z,97975.59
2023-03-29T21:01:39.516Z,97975.53
2023-03-29T21:04:16.727Z,97978.63
2023-03-29T21:06:50.914Z,97975.93
2023-03-29T21:09:21.648Z,97978.13
2023-03-29T21:11:50.830Z,97983.34
2023-03-29T21:14:20.601Z,97980.42
2023-03-29T21:16:51.276Z,97983.34
2023-03-29T21:19:19.208Z,97977.72
2023-03-29T21:21:47.741Z,97986.34
2023-03-29T21:24:15.510Z,97980.13
2023-03-29T21:26:43.436Z,97980.59
2023-03-29T21:29:11.279Z,97981.56
2023-03-29T21:31:39.151Z,97983.64
2023-03-29T21:34:07.033Z,97986.48
2023-03-29T21:36:35.266Z,97979.86
2023-03-29T21:39:03.868Z,97985.34
2023-03-29T21:41:31.792Z,97984.48
2023-03-29T21:43:59.807Z,97988.09
2023-03-29T21:46:27.920Z,97989.37
2023-03-29T21:48:55.882Z,97987.19
2023-03-29T21:51:23.712Z,97993.42
2023-03-29T21:53:51.721Z,97998.55
2023-03-29T21:56:19.986Z,97995.02
2023-03-29T21:58:47.802Z,98002.56
2023-03-29T22:01:15.797Z,98005.65
2023-03-29T22:03:43.722Z,98006.09
2023-03-29T22:06:13.414Z,98003.11
2023-03-29T22:08:41.347Z,98004.15
2023-03-29T22:11:16.800Z,98002.23
2023-03-29T22:13:45.284Z,98006.92
2023-03-29T22:16:15.534Z,98003.93
2023-03-29T22:18:47.264Z,98000.42
2023-03-29T22:21:24.736Z,98003.81
2023-03-29T22:23:55.526Z,98005.81
2023-03-29T22:26:27.794Z,98006.78
2023-03-29T22:28:57.141Z,98007.94
2023-03-29T22:31:26.597Z,98009.63
2023-03-29T22:33:55.693Z,98001.33
2023-03-29T22:36:27.728Z,98006.23
2023-03-29T22:38:56.055Z,98007.19
2023-03-29T22:41:27.067Z,98008.95
2023-03-29T22:43:57.437Z,98016.20
2023-03-29T22:46:25.807Z,98018.16
2023-03-29T22:48:53.896Z,98022.55
2023-03-29T22:51:21.908Z,98022.70
2023-03-29T22:53:49.619Z,98022.70
2023-03-29T22:56:18.001Z,98022.14
2023-03-29T22:58:46.088Z,98023.89
2023-03-29T23:01:14.144Z,98025.72
2023-03-29T23:03:42.009Z,98005.55
2023-03-29T23:06:10.077Z,98025.56
2023-03-29T23:08:39.873Z,98030.03
2023-03-29T23:11:07.657Z,98033.69
2023-03-29T23:13:35.598Z,98032.81
2023-03-29T23:16:04.343Z,98029.30
2023-03-29T23:18:34.399Z,98028.19
2023-03-29T23:21:04.788Z,98030.02
2023-03-29T23:23:33.855Z,98041.58
2023-03-29T23:26:02.321Z,98032.00
2023-03-29T23:28:30.868Z,98029.80
2023-03-29T23:31:11.419Z,98024.97
2023-03-29T23:33:42.067Z,98020.98
2023-03-29T23:36:14.304Z,98018.70
2023-03-29T23:38:45.337Z,98018.33
2023-03-29T23:41:13.514Z,98024.11
2023-03-29T23:43:43.621Z,98026.14
2023-03-29T23:46:14.902Z,98026.37
2023-03-29T23:48:48.524Z,98026.00
2023-03-29T23:51:18.308Z,98037.52
2023-03-29T23:53:48.038Z,98038.55
2023-03-29T23:56:15.690Z,98042.49
2023-03-29T23:58:44.071Z,98046.23
